Time;durP1;ratioP1;P1;durP2;ratioP2;P2;SDS_P1;SDS_P2;PMS_P1;PMS_P2;Temp;Humidity;BMP_temperature;BMP_pressure;BME280_temperature;BME280_humidity;BME280_pressure;Samples;Min_cycle;Max_cycle;Signal;HPM_P1;HPM_P2
2021/06/03 00:01:28;;;;;;;;;;;;;;;12.61;69.50;100986.19;4865441;29;19962;-60
2021/06/03 00:03:54;;;;;;;;;;;;;;;12.56;69.33;100986.56;4865550;29;19919;-60
2021/06/03 00:06:19;;;;;;;;;;;;;;;12.50;69.43;100978.91;4865799;29;19916;-60
2021/06/03 00:08:45;;;;;;;;;;;;;;;12.43;69.68;100978.94;4865462;29;20002;-60
2021/06/03 00:11:11;;;;;;;;;;;;;;;12.38;69.65;100982.94;4865250;29;19911;-60
2021/06/03 00:13:38;;;;;;;;;;;;;;;12.35;69.78;100978.94;4865419;29;19912;-60
2021/06/03 00:16:06;;;;;;;;;;;;;;;12.34;69.82;100973.69;4858713;29;19947;-60
2021/06/03 00:18:31;;;;;;;;;;;;;;;12.31;69.51;100977.28;4864770;29;19954;-60
2021/06/03 00:20:57;;;;;;;;;;;;;;;12.26;69.84;100984.13;4865580;29;19979;-60
2021/06/03 00:23:22;;;;;;;;;;;;;;;12.22;69.68;100982.50;4865224;29;19916;-60
2021/06/03 00:25:47;;;;;;;;;;;;;;;12.18;69.93;100985.31;4864816;29;19919;-60
2021/06/03 00:28:12;;;;;;;;;;;;;;;12.17;69.99;100978.06;4865179;29;19935;-60
2021/06/03 00:30:38;;;;;;;;;;;;;;;12.19;69.77;100986.94;4864988;29;19920;-60
2021/06/03 00:33:03;;;;;;;;;;;;;;;12.20;69.15;100990.56;4864905;29;19998;-60
2021/06/03 00:35:28;;;;;;;;;;;;;;;12.15;69.20;100991.75;4865223;29;20224;-60
2021/06/03 00:37:54;;;;;;;;;;;;;;;12.10;69.91;100994.97;4865362;29;20312;-60
2021/06/03 00:40:20;;;;;;;;;;;;;;;12.06;69.82;100994.16;4864758;29;20007;-60
2021/06/03 00:42:45;;;;;;;;;;;;;;;12.01;70.10;100994.53;4864722;29;20297;-60
2021/06/03 00:45:12;;;;;;;;;;;;;;;11.98;69.84;101003.78;4864889;29;19991;-60
2021/06/03 00:47:37;;;;;;;;;;;;;;;11.92;70.13;100994.91;4864928;29;19922;-60
2021/06/03 00:50:09;;;;;;;;;;;;;;;11.85;70.06;100994.09;4864601;29;20208;-60
2021/06/03 00:52:34;;;;;;;;;;;;;;;11.79;70.13;100996.50;4864834;29;19919;-60
2021/06/03 00:55:00;;;;;;;;;;;;;;;11.73;70.62;101009.28;4864648;29;19912;-60
2021/06/03 00:57:25;;;;;;;;;;;;;;;11.68;70.56;100996.41;4864390;29;19998;-59
2021/06/03 00:59:50;;;;;;;;;;;;;;;11.65;70.80;100991.56;4864784;29;19912;-60
2021/06/03 01:02:15;;;;;;;;;;;;;;;11.64;70.92;101000.41;4864605;29;19919;-60
2021/06/03 01:04:40;;;;;;;;;;;;;;;11.63;71.12;101004.44;4864212;29;19927;-60
2021/06/03 01:07:06;;;;;;;;;;;;;;;11.60;70.89;101011.66;4863758;29;19947;-60
2021/06/03 01:09:37;;;;;;;;;;;;;;;11.58;70.75;101004.81;4864314;29;19912;-60
2021/06/03 01:12:05;;;;;;;;;;;;;;;11.54;70.77;101007.59;4864617;29;20213;-60
2021/06/03 01:14:34;;;;;;;;;;;;;;;11.49;70.78;101002.31;4864294;29;20331;-60
2021/06/03 01:17:00;;;;;;;;;;;;;;;11.44;71.11;101013.97;4864460;29;19976;-60
2021/06/03 01:19:27;;;;;;;;;;;;;;;11.41;71.16;101011.94;4864003;29;19965;-60
2021/06/03 01:21:55;;;;;;;;;;;;;;;11.40;71.40;101015.97;4864629;29;20010;-60
2021/06/03 01:24:24;;;;;;;;;;;;;;;11.38;71.30;101013.53;4863799;29;20300;-60
2021/06/03 01:26:49;;;;;;;;;;;;;;;11.36;70.84;101017.94;4864121;29;19981;-60
2021/06/03 01:29:17;;;;;;;;;;;;;;;11.36;71.25;101017.94;4864335;29;20016;-60
2021/06/03 01:31:43;;;;;;;;;;;;;;;11.38;71.17;101016.34;4863620;29;20256;-60
2021/06/03 01:34:10;;;;;;;;;;;;;;;11.43;70.75;101018.00;4864062;29;19916;-60
2021/06/03 01:36:36;;;;;;;;;;;;;;;11.48;70.75;101025.25;4863765;29;20432;-60
2021/06/03 01:39:03;;;;;;;;;;;;;;;11.45;70.51;101021.22;4863927;29;19999;-60
2021/06/03 01:41:29;;;;;;;;;;;;;;;11.37;70.32;101020.38;4863687;29;19916;-60
2021/06/03 01:43:54;;;;;;;;;;;;;;;11.30;70.92;101025.97;4864245;29;19923;-60
2021/06/03 01:46:21;;;;;;;;;;;;;;;11.23;70.70;101020.31;4863780;29;20269;-59
2021/06/03 01:48:46;;;;;;;;;;;;;;;11.16;71.27;101020.22;4863954;29;19916;-60
2021/06/03 01:51:12;;;;;;;;;;;;;;;11.13;71.53;101018.19;4862849;29;19968;-60
2021/06/03 01:53:38;;;;;;;;;;;;;;;11.10;71.53;101016.97;4863469;29;20351;-60
2021/06/03 01:56:05;;;;;;;;;;;;;;;11.06;71.29;101020.97;4864132;29;19912;-59
2021/06/03 01:58:31;;;;;;;;;;;;;;;11.02;71.52;101011.72;4863422;29;19916;-61
2021/06/03 02:00:57;;;;;;;;;;;;;;;10.99;71.92;101018.13;4864175;29;20268;-60
2021/06/03 02:03:23;;;;;;;;;;;;;;;10.96;72.15;101021.72;4863571;29;20315;-60
2021/06/03 02:05:48;;;;;;;;;;;;;;;10.92;71.97;101020.84;4863705;29;19912;-60
2021/06/03 02:08:13;;;;;;;;;;;;;;;10.88;72.19;101020.03;4863524;29;19920;-60
2021/06/03 02:10:39;;;;;;;;;;;;;;;10.83;72.32;101027.63;4863436;29;19912;-60
2021/06/03 02:13:13;;;;;;;;;;;;;;;10.79;72.50;101018.34;4863634;29;19912;-60
2021/06/03 02:15:59;;;;;;;;;;;;;;;10.78;72.65;101032.81;4863339;29;19919;-60
2021/06/03 02:18:35;;;;;;;;;;;;;;;10.73;72.30;101025.53;4863061;29;19912;-60
2021/06/03 02:21:01;;;;;;;;;;;;;;;10.72;72.92;101029.56;4863511;29;19912;-60
2021/06/03 02:23:27;;;;;;;;;;;;;;;10.71;72.53;101030.75;4863182;29;19976;-61
2021/06/03 02:26:00;;;;;;;;;;;;;;;10.71;72.76;101030.75;4863184;29;19931;-60
2021/06/03 02:28:26;;;;;;;;;;;;;;;10.70;72.89;101026.31;4851203;29;19912;-60
2021/06/03 02:30:53;;;;;;;;;;;;;;;10.69;72.60;101029.53;4863297;29;19927;-60
2021/06/03 02:33:19;;;;;;;;;;;;;;;10.66;72.52;101025.44;4863229;29;20010;-60
2021/06/03 02:35:44;;;;;;;;;;;;;;;10.63;72.51;101029.03;4863120;29;20023;-60
2021/06/03 02:38:10;;;;;;;;;;;;;;;10.62;72.73;101026.63;4863340;29;19919;-60
2021/06/03 02:40:35;;;;;;;;;;;;;;;10.59;72.18;101033.03;4863042;29;19964;-60
2021/06/03 02:43:00;;;;;;;;;;;;;;;10.59;72.57;101036.66;4863226;29;19916;-61
2021/06/03 02:45:27;;;;;;;;;;;;;;;10.58;72.04;101037.84;4863402;29;19982;-60
2021/06/03 02:47:52;;;;;;;;;;;;;;;10.59;72.49;101042.25;4863149;29;19915;-60
2021/06/03 02:50:19;;;;;;;;;;;;;;;10.60;72.36;101038.25;4863270;29;20312;-60
2021/06/03 02:52:44;;;;;;;;;;;;;;;10.63;72.76;101053.53;4863375;29;19955;-59
2021/06/03 02:55:11;;;;;;;;;;;;;;;10.65;72.53;101046.34;4862907;29;19943;-60
2021/06/03 02:57:37;;;;;;;;;;;;;;;10.74;72.16;101054.47;4863192;29;19916;-60
2021/06/03 03:00:06;;;;;;;;;;;;;;;10.76;71.82;101050.06;4863170;29;19916;-60
2021/06/03 03:02:31;;;;;;;;;;;;;;;10.78;72.29;101049.69;4863014;29;20339;-60
2021/06/03 03:04:56;;;;;;;;;;;;;;;10.82;71.97;101051.31;4863009;29;19948;-60
2021/06/03 03:07:21;;;;;;;;;;;;;;;10.85;71.33;101055.34;4862866;29;19916;-60
2021/06/03 03:09:47;;;;;;;;;;;;;;;10.94;71.06;101063.47;4863129;29;19912;-59
2021/06/03 03:12:12;;;;;;;;;;;;;;;11.06;70.39;101060.34;4862913;29;19912;-60
2021/06/03 03:14:38;;;;;;;;;;;;;;;11.19;70.34;101064.47;4863431;29;19920;-60
2021/06/03 03:17:03;;;;;;;;;;;;;;;11.27;69.35;101066.16;4862987;29;19964;-60
2021/06/03 03:19:29;;;;;;;;;;;;;;;11.34;69.00;101060.56;4862921;29;19920;-60
2021/06/03 03:21:54;;;;;;;;;;;;;;;11.45;68.80;101061.44;4863159;29;19919;-60
2021/06/03 03:24:19;;;;;;;;;;;;;;;11.56;68.68;101060.72;4862956;29;20212;-60
2021/06/03 03:26:45;;;;;;;;;;;;;;;11.63;68.81;101067.19;4862827;29;20308;-60
2021/06/03 03:29:10;;;;;;;;;;;;;;;11.67;68.96;101070.00;4864315;29;19916;-60
2021/06/03 03:31:35;;;;;;;;;;;;;;;11.65;69.18;101078.84;4865938;29;20220;-60
2021/06/03 03:34:03;;;;;;;;;;;;;;;11.62;69.26;101076.03;4866172;29;20193;-60
2021/06/03 03:36:31;;;;;;;;;;;;;;;11.63;69.35;101078.44;4865781;29;20002;-60
2021/06/03 03:38:56;;;;;;;;;;;;;;;11.66;68.99;101080.47;4866454;29;20014;-60
2021/06/03 03:41:22;;;;;;;;;;;;;;;11.68;69.19;101078.06;4865984;29;20308;-60
2021/06/03 03:43:48;;;;;;;;;;;;;;;11.69;69.11;101076.06;4866199;29;19941;-60
2021/06/03 03:46:13;;;;;;;;;;;;;;;11.70;69.13;101086.94;4866000;29;19919;-60
2021/06/03 03:48:38;;;;;;;;;;;;;;;11.74;69.42;101084.13;4865565;29;19977;-60
2021/06/03 03:51:03;;;;;;;;;;;;;;;11.76;69.19;101081.72;4865899;29;19955;-60
2021/06/03 03:53:29;;;;;;;;;;;;;;;11.79;69.56;101085.81;4865714;29;19944;-60
2021/06/03 03:55:54;;;;;;;;;;;;;;;11.77;69.86;101084.13;4865894;29;19918;-60
2021/06/03 03:58:20;;;;;;;;;;;;;;;11.77;70.13;101084.13;4865422;29;19919;-61
2021/06/03 04:00:45;;;;;;;;;;;;;;;11.79;70.27;101086.63;4865556;29;19972;-60
2021/06/03 04:03:10;;;;;;;;;;;;;;;11.84;70.51;101086.25;4865561;29;19912;-60
2021/06/03 04:05:35;;;;;;;;;;;;;;;11.95;70.08;101089.09;4865592;29;19919;-60
2021/06/03 04:08:01;;;;;;;;;;;;;;;12.07;69.49;101088.75;4865657;29;20207;-61
2021/06/03 04:10:27;;;;;;;;;;;;;;;12.19;68.66;101088.41;4865396;29;19991;-58
2021/06/03 04:12:52;;;;;;;;;;;;;;;12.28;68.29;101086.00;4865858;29;19919;-61
2021/06/03 04:15:18;;;;;;;;;;;;;;;12.37;68.37;101094.09;4865066;29;20189;-60
2021/06/03 04:17:44;;;;;;;;;;;;;;;12.47;68.01;101093.31;4865416;29;19912;-59
2021/06/03 04:20:11;;;;;;;;;;;;;;;12.57;68.15;101094.53;4865611;29;20193;-60
2021/06/03 04:22:36;;;;;;;;;;;;;;;12.69;67.54;101097.00;4864962;29;20341;-61
2021/06/03 04:25:03;;;;;;;;;;;;;;;12.83;67.01;101099.03;4865204;29;20007;-61
2021/06/03 04:27:28;;;;;;;;;;;;;;;12.94;67.54;101094.22;4865012;29;19916;-61
2021/06/03 04:29:53;;;;;;;;;;;;;;;13.03;67.31;101097.44;4864976;29;20224;-60
2021/06/03 04:32:18;;;;;;;;;;;;;;;13.10;67.54;101102.28;4864802;29;20038;-60
2021/06/03 04:34:43;;;;;;;;;;;;;;;13.17;67.78;101097.50;4865273;29;19912;-61
2021/06/03 04:37:09;;;;;;;;;;;;;;;13.25;66.77;101099.09;4864491;29;19926;-60
2021/06/03 04:39:35;;;;;;;;;;;;;;;13.32;67.01;101100.28;4864033;29;19969;-60
2021/06/03 04:42:00;;;;;;;;;;;;;;;13.40;66.89;101101.88;4864539;29;19915;-60
2021/06/03 04:44:25;;;;;;;;;;;;;;;13.47;66.71;101102.69;4865085;29;20257;-60
2021/06/03 04:46:51;;;;;;;;;;;;;;;13.56;65.96;101105.91;4863326;29;19946;-60
2021/06/03 04:49:17;;;;;;;;;;;;;;;13.66;65.15;101101.44;4864924;29;19912;-62
2021/06/03 04:51:42;;;;;;;;;;;;;;;13.77;65.33;101107.09;4862487;29;19923;-60
2021/06/03 04:54:07;;;;;;;;;;;;;;;13.86;65.49;101108.25;4862137;29;19916;-60
2021/06/03 04:56:33;;;;;;;;;;;;;;;13.97;65.30;101110.25;4862558;29;20248;-61
2021/06/03 04:58:58;;;;;;;;;;;;;;;14.07;65.17;101110.22;4863218;29;19971;-61
2021/06/03 05:01:23;;;;;;;;;;;;;;;14.16;65.08;101107.75;4861904;29;19920;-60
2021/06/03 05:03:49;;;;;;;;;;;;;;;14.26;65.11;101106.13;4864083;29;19920;-60
2021/06/03 05:06:14;;;;;;;;;;;;;;;14.34;64.74;101119.00;4864241;29;19916;-60
2021/06/03 05:08:39;;;;;;;;;;;;;;;14.44;64.99;101121.00;4862816;29;19922;-60
2021/06/03 05:11:04;;;;;;;;;;;;;;;14.53;64.84;101120.56;4862659;29;19912;-59
2021/06/03 05:13:30;;;;;;;;;;;;;;;14.63;63.69;101118.88;4862572;29;19912;-60
2021/06/03 05:15:56;;;;;;;;;;;;;;;14.73;63.24;101120.81;4863964;29;20304;-60
2021/06/03 05:18:21;;;;;;;;;;;;;;;14.84;61.40;101130.06;4863821;29;19968;-60
2021/06/03 05:20:47;;;;;;;;;;;;;;;14.97;60.09;101121.88;4862352;29;19964;-60
2021/06/03 05:23:14;;;;;;;;;;;;;;;15.07;60.28;101121.81;4862358;29;19912;-60
2021/06/03 05:25:39;;;;;;;;;;;;;;;15.19;59.05;101139.53;4857605;29;19916;-60
2021/06/03 05:28:04;;;;;;;;;;;;;;;15.27;59.71;101132.56;4862188;29;19926;-60
2021/06/03 05:30:30;;;;;;;;;;;;;;;15.37;59.42;101129.66;4862091;29;19924;-61
2021/06/03 05:32:56;;;;;;;;;;;;;;;15.51;60.00;101125.88;4862171;29;19923;-60
2021/06/03 05:35:22;;;;;;;;;;;;;;;15.61;59.75;101129.88;4863795;29;19964;-61
2021/06/03 05:37:47;;;;;;;;;;;;;;;15.71;59.75;101131.81;4864205;29;19919;-61
2021/06/03 05:40:14;;;;;;;;;;;;;;;15.83;57.79;101136.94;4863928;29;20223;-60
2021/06/03 05:42:39;;;;;;;;;;;;;;;15.94;58.08;101137.66;4863721;29;19915;-61
2021/06/03 05:45:07;;;;;;;;;;;;;;;16.04;57.02;101127.41;4863715;29;20250;-61
2021/06/03 05:47:33;;;;;;;;;;;;;;;16.17;58.09;101124.84;4863848;29;19923;-60
2021/06/03 05:49:58;;;;;;;;;;;;;;;16.26;56.35;101128.75;4863651;29;19916;-61
2021/06/03 05:52:23;;;;;;;;;;;;;;;16.36;55.84;101130.66;4863546;29;19912;-61
2021/06/03 05:54:48;;;;;;;;;;;;;;;16.48;55.29;101134.97;4863786;29;19920;-60
2021/06/03 05:57:13;;;;;;;;;;;;;;;16.59;53.99;101140.50;4863685;29;19954;-60
2021/06/03 05:59:39;;;;;;;;;;;;;;;16.71;52.98;101134.28;4863433;29;20319;-60
2021/06/03 06:02:06;;;;;;;;;;;;;;;16.79;52.35;101129.31;4863713;29;19912;-60
2021/06/03 06:06:57;;;;;;;;;;;;;;;16.93;50.26;101132.72;4863662;29;19923;-60
2021/06/03 06:09:22;;;;;;;;;;;;;;;16.99;50.30;101136.72;4863749;29;19916;-60
2021/06/03 06:11:48;;;;;;;;;;;;;;;17.06;49.87;101132.94;4863669;29;19916;-60
2021/06/03 06:14:13;;;;;;;;;;;;;;;17.11;51.56;101140.19;4863188;29;20239;-60
2021/06/03 06:16:39;;;;;;;;;;;;;;;17.18;51.84;101140.06;4863573;29;19920;-60
2021/06/03 06:19:05;;;;;;;;;;;;;;;17.28;49.50;101145.59;4863501;29;20436;-60
2021/06/03 06:21:30;;;;;;;;;;;;;;;17.38;49.00;101146.63;4863382;29;19923;-60
2021/06/03 06:23:56;;;;;;;;;;;;;;;17.46;48.88;101148.13;4863658;29;20296;-61
2021/06/03 06:26:22;;;;;;;;;;;;;;;17.49;48.02;101141.56;4863528;29;19963;-61
2021/06/03 06:28:47;;;;;;;;;;;;;;;17.55;47.74;101148.38;4863078;29;20266;-61
2021/06/03 06:31:13;;;;;;;;;;;;;;;17.63;48.63;101142.56;4863005;29;19920;-60
2021/06/03 06:33:39;;;;;;;;;;;;;;;17.68;47.57;101142.09;4863487;29;19919;-60
2021/06/03 06:36:05;;;;;;;;;;;;;;;17.75;47.82;101142.75;4863594;29;20406;-60
2021/06/03 06:38:31;;;;;;;;;;;;;;;17.84;47.65;101145.84;4863057;29;19912;-60
2021/06/03 06:40:56;;;;;;;;;;;;;;;17.89;47.02;101144.53;4863689;29;20031;-61
2021/06/03 06:43:21;;;;;;;;;;;;;;;17.88;48.05;101148.63;4863083;29;20367;-61
2021/06/03 06:45:47;;;;;;;;;;;;;;;17.93;47.96;101136.75;4863134;29;19947;-60
2021/06/03 06:48:15;;;;;;;;;;;;;;;18.00;48.87;101142.28;4863197;29;19916;-60
2021/06/03 06:50:40;;;;;;;;;;;;;;;18.12;47.91;101143.69;4863313;29;19923;-61
2021/06/03 06:53:06;;;;;;;;;;;;;;;18.20;47.88;101136.63;4863192;29;19995;-61
2021/06/03 06:55:32;;;;;;;;;;;;;;;18.27;47.58;101138.50;4863112;29;19999;-60
2021/06/03 06:57:59;;;;;;;;;;;;;;;18.33;46.84;101145.28;4863318;29;19919;-60
2021/06/03 07:00:25;;;;;;;;;;;;;;;18.38;48.27;101142.75;4863068;29;20291;-61
2021/06/03 07:02:50;;;;;;;;;;;;;;;18.42;47.50;101154.06;4863149;29;20225;-60
2021/06/03 07:05:16;;;;;;;;;;;;;;;18.47;47.05;101148.66;4866090;29;19919;-60
2021/06/03 07:07:42;;;;;;;;;;;;;;;18.59;47.54;101152.06;4866692;29;20260;-60
2021/06/03 07:10:08;;;;;;;;;;;;;;;18.67;47.26;101145.81;4866563;29;19912;-61
2021/06/03 07:12:33;;;;;;;;;;;;;;;18.77;47.35;101155.38;4866197;29;20227;-61
2021/06/03 07:14:59;;;;;;;;;;;;;;;18.86;47.71;101155.56;4866630;29;20053;-60
2021/06/03 07:17:24;;;;;;;;;;;;;;;18.95;47.97;101154.97;4866399;29;19912;-61
2021/06/03 07:19:49;;;;;;;;;;;;;;;19.05;45.08;101153.91;4865493;29;20292;-61
2021/06/03 07:22:14;;;;;;;;;;;;;;;19.06;47.05;101161.22;4866388;29;19919;-61
2021/06/03 07:24:40;;;;;;;;;;;;;;;19.14;46.55;101151.25;4866307;29;19920;-60
2021/06/03 07:38:55;;;;;;;7.20;2.13;;;;;;;19.69;45.53;101149.47;5125938;27;20835;-61
2021/06/03 07:41:20;;;;;;;5.00;2.78;;;;;;;19.75;43.01;101151.38;5093015;28;20036;-61
2021/06/03 07:43:46;;;;;;;2.25;1.65;;;;;;;19.81;43.10;101148.78;5092822;28;20048;-60
2021/06/03 07:46:13;;;;;;;2.55;2.15;;;;;;;19.88;43.19;101151.41;5092292;28;20377;-60
2021/06/03 07:48:38;;;;;;;7.13;2.50;;;;;;;19.92;40.25;101154.19;5092938;28;20032;-59
2021/06/03 07:51:04;;;;;;;6.80;2.60;;;;;;;19.98;44.17;101153.16;5092693;28;20024;-60
2021/06/03 07:53:31;;;;;;;5.93;2.20;;;;;;;20.04;42.38;101147.75;5092877;28;20024;-60
2021/06/03 07:55:57;;;;;;;3.47;2.20;;;;;;;20.03;41.32;101144.09;5092815;28;20394;-59
2021/06/03 07:58:23;;;;;;;5.32;2.40;;;;;;;20.08;42.80;101147.63;5092982;28;20024;-59
2021/06/03 08:00:48;;;;;;;5.63;2.08;;;;;;;20.14;43.41;101148.69;5092756;28;20460;-60
2021/06/03 08:03:14;;;;;;;5.80;2.28;;;;;;;20.17;42.44;101148.59;5092082;28;20077;-59
2021/06/03 08:05:39;;;;;;;9.05;2.33;;;;;;;20.24;43.05;101151.22;5092815;28;20028;-60
2021/06/03 08:08:06;;;;;;;4.63;2.10;;;;;;;20.38;40.81;101152.88;5092491;28;20060;-62
2021/06/03 08:10:34;;;;;;;4.07;1.85;;;;;;;20.43;41.19;101155.22;5092669;28;20311;-60
2021/06/03 08:13:00;;;;;;;6.00;2.17;;;;;;;20.49;39.97;101147.69;5092049;28;20050;-59
2021/06/03 08:15:28;;;;;;;4.68;1.88;;;;;;;20.55;41.43;101145.09;5092322;28;20032;-61
2021/06/03 08:17:53;;;;;;;5.80;2.00;;;;;;;20.55;41.76;101151.59;5092624;28;20020;-60
2021/06/03 08:20:23;;;;;;;4.82;2.00;;;;;;;20.65;42.90;101159.03;5092275;28;20434;-61
2021/06/03 08:22:48;;;;;;;7.03;2.25;;;;;;;20.72;39.74;101137.22;5092238;28;20319;-60
2021/06/03 08:25:15;;;;;;;4.05;1.77;;;;;;;20.82;40.91;101151.19;5091792;28;20274;-60
2021/06/03 08:27:41;;;;;;;2.13;1.70;;;;;;;20.92;39.92;101149.25;5091790;28;20020;-60
2021/06/03 08:30:09;;;;;;;3.97;2.03;;;;;;;20.95;39.15;101151.19;5092102;28;20024;-60
2021/06/03 08:32:35;;;;;;;6.70;1.88;;;;;;;20.97;39.09;101151.53;5092216;28;20024;-60
2021/06/03 08:35:00;;;;;;;9.20;2.45;;;;;;;21.03;40.05;101152.56;5092227;28;20019;-61
2021/06/03 08:37:25;;;;;;;4.00;2.17;;;;;;;21.07;39.58;101150.38;5091329;28;20090;-62
2021/06/03 08:39:51;;;;;;;3.30;1.88;;;;;;;21.14;40.74;101153.03;5078343;28;20060;-62
2021/06/03 08:42:16;;;;;;;4.43;2.25;;;;;;;21.17;38.83;101157.03;5077873;28;20020;-61
2021/06/03 08:44:43;;;;;;;4.90;2.00;;;;;;;21.22;39.38;101156.44;5078298;28;20032;-60
2021/06/03 08:47:09;;;;;;;2.65;1.77;;;;;;;21.25;38.80;101153.50;5077664;28;20411;-62
2021/06/03 08:49:36;;;;;;;5.55;1.70;;;;;;;21.33;39.91;101159.78;5078588;28;20325;-62
2021/06/03 08:52:03;;;;;;;6.38;2.15;;;;;;;21.36;39.46;101146.63;5077181;28;20024;-62
2021/06/03 08:54:36;;;;;;;6.53;2.38;;;;;;;21.41;40.00;101160.34;5077958;28;20029;-59
2021/06/03 08:57:11;;;;;;;2.90;2.00;;;;;;;21.48;39.22;101157.25;5078210;28;20053;-59
2021/06/03 08:59:38;;;;;;;4.68;2.45;;;;;;;21.54;40.01;101158.28;5077944;28;20091;-59
2021/06/03 09:02:04;;;;;;;5.38;2.25;;;;;;;21.64;40.75;101145.69;5077911;28;20078;-59
2021/06/03 09:04:30;;;;;;;6.95;2.10;;;;;;;21.77;39.75;101155.00;5077952;28;20055;-60
2021/06/03 09:06:55;;;;;;;5.13;2.45;;;;;;;21.85;39.78;101149.84;5077936;28;20485;-59
2021/06/03 09:09:28;;;;;;;9.13;2.17;;;;;;;21.93;40.14;101150.41;5077426;28;20074;-59
2021/06/03 09:12:14;;;;;;;5.45;2.08;;;;;;;22.00;39.24;101153.00;5077582;28;20225;-59
2021/06/03 09:14:39;;;;;;;4.35;2.10;;;;;;;22.06;39.03;101154.03;5077519;28;20074;-61
2021/06/03 09:17:05;;;;;;;4.15;2.40;;;;;;;22.12;38.83;101157.91;5077723;28;20304;-60
2021/06/03 09:19:30;;;;;;;9.27;2.67;;;;;;;22.15;38.17;101159.81;5077759;28;20024;-59
2021/06/03 09:21:56;;;;;;;3.38;1.55;;;;;;;22.17;38.56;101157.28;5077499;28;20016;-59
2021/06/03 09:24:23;;;;;;;3.28;2.00;;;;;;;22.20;37.40;101159.25;5077554;28;20029;-60
2021/06/03 09:26:54;;;;;;;20.15;3.05;;;;;;;22.25;37.22;101155.78;5077298;28;20073;-59
2021/06/03 09:29:21;;;;;;;7.00;2.38;;;;;;;22.29;39.40;101150.72;5077299;28;20035;-59
2021/06/03 09:31:47;;;;;;;7.13;2.22;;;;;;;22.30;38.85;101149.47;5077239;28;20024;-60
2021/06/03 09:34:16;;;;;;;4.47;2.50;;;;;;;22.29;36.96;101150.72;5077284;28;20080;-59
2021/06/03 09:37:01;;;;;;;5.97;1.92;;;;;;;22.28;37.49;101142.59;5077139;28;20111;-59
2021/06/03 09:39:32;;;;;;;7.47;2.28;;;;;;;22.29;39.29;101145.00;5076841;28;20335;-59
2021/06/03 09:42:01;;;;;;;4.85;2.20;;;;;;;22.37;39.51;101148.38;5077102;28;20104;-60
2021/06/03 09:44:31;;;;;;;8.73;2.28;;;;;;;22.41;37.41;101149.03;5076168;28;20028;-60
2021/06/03 09:47:04;;;;;;;2.75;2.13;;;;;;;22.42;38.55;101148.59;5077358;28;20085;-60
2021/06/03 09:49:34;;;;;;;4.70;2.35;;;;;;;22.48;37.36;101148.81;5076372;28;20032;-60
2021/06/03 09:52:06;;;;;;;6.90;2.40;;;;;;;22.49;38.73;101150.41;5076966;28;20409;-60
2021/06/03 09:54:32;;;;;;;3.72;2.10;;;;;;;22.52;38.70;101147.41;5076430;28;20109;-59
2021/06/03 09:57:01;;;;;;;2.92;1.50;;;;;;;22.48;38.12;101141.00;5077256;28;20052;-59
2021/06/03 09:59:54;;;;;;;4.72;2.08;;;;;;;22.50;38.80;101138.47;5076661;28;20039;-60
2021/06/03 10:02:20;;;;;;;4.45;2.30;;;;;;;22.56;38.47;101149.31;5076208;28;20036;-62
2021/06/03 10:04:51;;;;;;;5.45;2.10;;;;;;;22.57;38.98;101148.06;5076038;28;20082;-59
2021/06/03 10:07:27;;;;;;;5.32;2.00;;;;;;;22.67;38.94;101144.75;5076425;28;20074;-62
2021/06/03 10:10:04;;;;;;;14.45;2.53;;;;;;;22.80;40.74;101150.41;5076383;28;20031;-60
2021/06/03 10:12:34;;;;;;;3.75;2.40;;;;;;;22.90;39.81;101142.69;5076358;28;20028;-61
2021/06/03 10:15:25;;;;;;;6.20;2.30;;;;;;;23.01;38.88;101149.63;5076610;28;20319;-60
2021/06/03 10:17:57;;;;;;;11.75;2.55;;;;;;;23.09;38.75;101138.66;5076221;28;20024;-61
2021/06/03 10:20:37;;;;;;;7.20;2.08;;;;;;;23.16;37.97;101137.53;5076660;28;20017;-60
2021/06/03 10:23:04;;;;;;;4.63;2.55;;;;;;;23.16;37.38;101132.63;5075836;28;20031;-63
2021/06/03 10:25:31;;;;;;;4.38;2.50;;;;;;;23.16;37.74;101138.34;5076325;28;20031;-62
2021/06/03 10:28:06;;;;;;;4.50;2.20;;;;;;;23.16;39.33;101134.69;5076117;28;20028;-64
2021/06/03 10:30:32;;;;;;;3.47;2.05;;;;;;;23.09;36.06;101130.84;5076070;28;20111;-61
2021/06/03 10:33:02;;;;;;;5.13;2.60;;;;;;;23.07;37.47;101126.84;5076309;28;20025;-62
2021/06/03 10:35:31;;;;;;;16.27;2.60;;;;;;;23.08;38.18;101125.59;5075875;28;20025;-63
2021/06/03 10:37:58;;;;;;;4.15;2.10;;;;;;;23.06;36.57;101128.13;5075881;28;20047;-61
2021/06/03 10:40:27;;;;;;;5.22;2.10;;;;;;;23.00;36.23;101121.38;5075796;28;20085;-61
2021/06/03 10:42:54;;;;;;;6.63;2.15;;;;;;;22.85;37.01;101124.03;5075988;28;20020;-62
2021/06/03 10:45:22;;;;;;;6.07;2.25;;;;;;;22.81;37.22;101129.91;5075933;28;20108;-62
2021/06/03 10:47:48;;;;;;;4.47;2.55;;;;;;;22.79;38.04;101120.16;5074697;28;20491;-61
2021/06/03 10:50:40;;;;;;;8.23;2.40;;;;;;;22.75;36.79;101120.31;5075988;28;20412;-60
2021/06/03 10:53:08;;;;;;;;;;;;;;;22.77;38.62;101122.72;5075735;28;20489;-61
2021/06/03 10:55:37;;;;;;;10.23;2.60;;;;;;;22.79;38.11;101120.97;5075983;28;20245;-60
2021/06/03 10:58:04;;;;;;;8.60;2.55;;;;;;;22.86;38.67;101124.84;5075898;28;20021;-60
2021/06/03 11:00:38;;;;;;;3.55;2.10;;;;;;;22.88;37.46;101122.31;5075761;28;20112;-60
2021/06/03 11:03:06;;;;;;;5.97;2.50;;;;;;;22.85;37.50;101124.03;5075230;28;20016;-60
2021/06/03 11:05:49;;;;;;;7.15;2.38;;;;;;;22.83;38.59;101128.66;5076003;28;20128;-60
2021/06/03 11:08:32;;;;;;;6.55;2.08;;;;;;;22.86;38.28;101114.16;5075413;28;20009;-61
2021/06/03 11:11:09;;;;;;;9.38;2.30;;;;;;;22.88;37.76;101111.63;5075548;28;20039;-60
2021/06/03 11:13:46;;;;;;;3.60;2.25;;;;;;;22.86;38.16;101119.09;5075670;28;20035;-60
2021/06/03 11:16:17;;;;;;;4.28;2.25;;;;;;;22.84;38.12;101122.44;5075421;28;20315;-60
2021/06/03 11:18:49;;;;;;;7.30;1.90;;;;;;;22.85;37.43;101123.25;5075607;28;20024;-61
2021/06/03 11:21:36;;;;;;;4.50;2.40;;;;;;;22.88;37.86;101110.84;5075116;28;20423;-60
2021/06/03 11:24:08;;;;;;;5.25;2.35;;;;;;;22.97;37.15;101111.66;5075709;28;20036;-60
2021/06/03 11:26:37;;;;;;;4.80;2.10;;;;;;;23.01;37.85;101114.38;5075266;28;20023;-60
2021/06/03 11:29:28;;;;;;;3.00;2.10;;;;;;;23.01;38.22;101115.22;5075787;28;20041;-60
2021/06/03 11:32:06;;;;;;;7.72;2.75;;;;;;;22.98;37.99;101098.91;5075509;28;20024;-60
2021/06/03 11:34:43;;;;;;;4.25;2.33;;;;;;;22.94;37.78;101104.00;5075224;28;20020;-61
2021/06/03 11:37:28;;;;;;;3.38;2.47;;;;;;;22.90;39.17;101091.88;5067616;28;20051;-60
2021/06/03 11:39:54;;;;;;;3.20;2.30;;;;;;;22.97;38.75;101096.53;5075396;28;20036;-61
2021/06/03 11:42:23;;;;;;;6.75;2.20;;;;;;;23.06;38.57;101085.91;5075146;28;20350;-60
2021/06/03 11:45:13;;;;;;;5.18;2.30;;;;;;;23.20;38.66;101086.56;5075417;28;20028;-61
2021/06/03 11:47:39;;;;;;;4.10;2.20;;;;;;;23.25;39.51;101091.69;5075052;28;20388;-60
2021/06/03 11:50:14;;;;;;;6.13;2.20;;;;;;;23.27;38.22;101092.00;5074105;28;20033;-60
2021/06/03 11:53:00;;;;;;;5.00;2.33;;;;;;;23.38;39.38;101081.69;5075142;28;20050;-60
2021/06/03 11:55:30;;;;;;;6.03;2.17;;;;;;;23.48;37.85;101073.88;5075278;28;20024;-61
2021/06/03 11:58:27;;;;;;;3.90;2.03;;;;;;;23.54;38.32;101083.44;5075148;28;20646;-61
2021/06/03 12:00:56;;;;;;;4.80;2.35;;;;;;;23.61;37.34;101076.66;5074907;28;20055;-61
2021/06/03 12:03:29;;;;;;;2.88;2.25;;;;;;;23.67;38.19;101081.28;5075407;28;20069;-60
2021/06/03 12:05:57;;;;;;;7.05;2.97;;;;;;;23.71;36.43;101081.13;5074751;28;20099;-61
2021/06/03 12:08:36;;;;;;;3.83;2.03;;;;;;;23.73;36.86;101082.22;5074918;28;20048;-60
2021/06/03 12:11:04;;;;;;;6.07;2.03;;;;;;;23.70;36.49;101080.31;5074950;28;20319;-61
2021/06/03 12:13:30;;;;;;;4.07;2.22;;;;;;;23.68;36.46;101084.94;5074607;28;20028;-60
2021/06/03 12:15:55;;;;;;;5.40;2.22;;;;;;;23.68;37.07;101077.13;5079143;28;20028;-60
2021/06/03 12:18:21;;;;;;;4.55;2.60;;;;;;;23.66;36.44;101079.69;5078291;28;20438;-60
2021/06/03 12:20:47;;;;;;;7.55;2.42;;;;;;;23.62;35.56;101090.53;5078668;28;20154;-61
2021/06/03 12:23:12;;;;;;;4.93;1.77;;;;;;;23.55;35.92;101076.44;5078470;28;20020;-60
2021/06/03 12:25:40;;;;;;;4.75;2.35;;;;;;;23.46;36.14;101076.44;5078965;28;20099;-60